createdAt,value
2019-03-03T00:02:26.097Z,24.93
2019-03-03T00:04:54.505Z,26.20
2019-03-03T00:07:42.147Z,25.40
2019-03-03T00:10:50.470Z,24.80
2019-03-03T00:13:38.116Z,24.40
2019-03-03T00:16:06.526Z,23.87
2019-03-03T00:18:54.167Z,23.77
2019-03-03T00:21:41.825Z,23.47
2019-03-03T00:24:29.577Z,24.60
2019-03-03T00:26:57.972Z,23.57
2019-03-03T00:29:26.377Z,23.30
2019-03-03T00:31:54.786Z,25.43
2019-03-03T00:34:23.181Z,23.33
2019-03-03T00:37:10.706Z,24.50
2019-03-03T00:40:17.492Z,23.13
2019-03-03T00:43:05.006Z,22.13
2019-03-03T00:51:06.978Z,19.90
2019-03-03T00:53:54.497Z,20.33
2019-03-03T00:59:17.363Z,17.17
2019-03-03T01:04:43.884Z,17.20
2019-03-03T01:07:31.411Z,18.03
2019-03-03T01:10:18.931Z,15.50
2019-03-03T01:13:25.709Z,15.97
2019-03-03T01:16:13.225Z,14.67
2019-03-03T01:22:09.096Z,14.00
2019-03-03T01:24:56.612Z,15.77
2019-03-03T01:32:53.477Z,12.20
2019-03-03T01:35:21.872Z,13.50
2019-03-03T01:38:09.651Z,11.53
2019-03-03T01:40:57.178Z,12.70
2019-03-03T01:43:44.694Z,11.27
2019-03-03T01:48:47.100Z,10.23
2019-03-03T01:51:15.504Z,9.93
2019-03-03T01:53:43.966Z,9.20
2019-03-03T01:56:31.714Z,10.10
2019-03-03T01:59:19.224Z,8.57
2019-03-03T02:01:47.638Z,8.53
2019-03-03T02:07:22.724Z,8.27
2019-03-03T02:18:08.693Z,7.50
2019-03-03T02:24:25.077Z,6.63
2019-03-03T02:26:53.480Z,5.70
2019-03-03T02:29:41.125Z,6.50
2019-03-03T02:32:28.730Z,6.97
2019-03-03T02:35:16.372Z,6.47
2019-03-03T02:38:24.684Z,5.70
2019-03-03T02:44:20.454Z,5.90
2019-03-03T02:46:48.837Z,5.93
2019-03-03T02:52:11.037Z,8.03
2019-03-03T02:54:39.436Z,4.77
2019-03-03T02:57:27.180Z,5.00
2019-03-03T03:00:14.696Z,5.70
2019-03-03T03:06:02.012Z,5.83
2019-03-03T03:11:28.265Z,5.20
2019-03-03T03:14:35.036Z,4.90
2019-03-03T03:17:22.551Z,6.57
2019-03-03T03:20:10.067Z,5.23
2019-03-03T03:22:57.588Z,6.40
2019-03-03T03:25:45.096Z,6.70
2019-03-03T03:31:27.379Z,7.63
2019-03-03T03:34:14.890Z,8.97
2019-03-03T03:37:02.400Z,9.83
2019-03-03T03:39:49.921Z,8.83
2019-03-03T03:42:37.437Z,9.83
2019-03-03T03:45:45.772Z,9.67
2019-03-03T03:48:33.292Z,9.10
2019-03-03T03:51:20.805Z,9.00
2019-03-03T03:57:02.889Z,10.13
2019-03-03T03:59:50.391Z,10.57
2019-03-03T04:02:57.160Z,9.20
2019-03-03T04:05:44.689Z,9.57
2019-03-03T04:11:26.887Z,8.67
2019-03-03T04:17:09.275Z,7.10
2019-03-03T04:19:56.792Z,7.80
2019-03-03T04:22:44.305Z,7.90
2019-03-03T04:25:31.839Z,7.27
2019-03-03T04:28:19.361Z,6.13
2019-03-03T04:31:06.886Z,6.00
2019-03-03T04:33:54.399Z,7.00
2019-03-03T04:42:09.971Z,6.03
2019-03-03T04:45:18.284Z,6.13
2019-03-03T04:48:05.791Z,4.70
2019-03-03T04:50:53.317Z,5.10
2019-03-03T04:53:40.826Z,3.90
2019-03-03T04:59:07.296Z,4.40
2019-03-03T05:01:54.812Z,3.53
2019-03-03T05:04:42.330Z,3.30
2019-03-03T05:07:29.844Z,3.87
2019-03-03T05:10:17.372Z,4.53
2019-03-03T05:13:04.875Z,3.60
2019-03-03T05:15:52.402Z,3.87
2019-03-03T05:21:29.135Z,3.50
2019-03-03T05:24:16.955Z,4.47
2019-03-03T05:27:04.643Z,3.83
2019-03-03T05:29:33.009Z,3.93
2019-03-03T05:32:20.667Z,4.57
2019-03-03T05:37:36.509Z,5.10
2019-03-03T05:43:05.937Z,4.50
2019-03-03T05:45:53.455Z,3.83
2019-03-03T05:48:40.962Z,3.67
2019-03-03T05:51:28.486Z,3.93
2019-03-03T05:56:44.328Z,5.57
2019-03-03T05:59:12.725Z,4.23
2019-03-03T06:01:41.127Z,4.37
2019-03-03T06:04:28.854Z,4.43
2019-03-03T06:07:16.508Z,4.30
2019-03-03T06:10:04.018Z,4.80
2019-03-03T06:12:51.667Z,5.30
2019-03-03T06:15:39.312Z,4.90
2019-03-03T06:18:26.831Z,5.07
2019-03-03T06:21:14.487Z,5.07
2019-03-03T06:24:01.994Z,5.27
2019-03-03T06:26:30.406Z,6.93
2019-03-03T06:28:58.802Z,6.03
2019-03-03T06:31:46.369Z,6.97
2019-03-03T06:34:14.763Z,6.47
2019-03-03T06:36:43.181Z,7.93
2019-03-03T06:41:59.094Z,9.20
2019-03-03T06:49:48.731Z,9.20
2019-03-03T06:52:36.501Z,9.37
2019-03-03T06:55:44.830Z,10.20
2019-03-03T06:58:13.317Z,11.70
2019-03-03T07:00:41.721Z,11.70
2019-03-03T07:05:43.884Z,9.90
2019-03-03T07:10:46.321Z,13.30
2019-03-03T07:13:34.004Z,13.90
2019-03-03T07:16:02.415Z,14.37
2019-03-03T07:18:50.095Z,13.97
2019-03-03T07:21:18.546Z,13.20
2019-03-03T07:23:46.973Z,15.43
2019-03-03T07:26:34.643Z,12.90
2019-03-03T07:29:03.067Z,13.53
2019-03-03T07:34:18.927Z,13.27
2019-03-03T07:36:47.341Z,12.70
2019-03-03T07:39:55.740Z,13.73
2019-03-03T07:42:24.200Z,14.07
2019-03-03T07:45:11.928Z,12.90
2019-03-03T07:47:40.458Z,9.70
2019-03-03T07:50:48.815Z,11.83
2019-03-03T07:53:17.285Z,11.67
2019-03-03T07:56:04.854Z,11.43
2019-03-03T07:58:33.329Z,10.90
2019-03-03T08:01:21.005Z,10.80
2019-03-03T08:03:49.445Z,11.00
2019-03-03T08:06:17.884Z,10.03
2019-03-03T08:08:46.412Z,9.50
2019-03-03T08:14:02.291Z,10.30
2019-03-03T08:16:50.001Z,10.10
2019-03-03T08:21:52.580Z,9.57
2019-03-03T08:27:14.580Z,9.37
2019-03-03T08:30:02.163Z,10.53
2019-03-03T08:32:49.923Z,10.80
2019-03-03T08:35:37.786Z,12.00
2019-03-03T08:38:25.355Z,10.53
2019-03-03T08:40:53.776Z,10.30
2019-03-03T08:43:41.346Z,12.43
2019-03-03T08:46:28.894Z,13.13
2019-03-03T08:49:35.749Z,12.70
2019-03-03T08:52:23.350Z,11.83
2019-03-03T08:57:46.395Z,12.87
2019-03-03T09:00:54.735Z,11.53
2019-03-03T09:03:42.398Z,10.80
2019-03-03T09:09:19.110Z,13.63
2019-03-03T09:12:06.675Z,13.27
2019-03-03T09:20:45.375Z,14.00
2019-03-03T09:26:22.069Z,12.40
2019-03-03T09:34:43.867Z,14.47
2019-03-03T09:37:50.711Z,13.80
2019-03-03T09:40:38.257Z,14.10
2019-03-03T09:46:14.864Z,12.93
2019-03-03T09:49:21.661Z,11.93
2019-03-03T09:58:12.162Z,13.00
2019-03-03T10:01:19.192Z,12.00
2019-03-03T10:04:06.812Z,11.37
2019-03-03T10:06:54.429Z,10.83
2019-03-03T10:09:42.050Z,11.00
2019-03-03T10:12:29.620Z,11.00
2019-03-03T10:15:17.215Z,9.57
2019-03-03T10:21:13.163Z,10.30
2019-03-03T10:24:00.745Z,9.60
2019-03-03T10:29:23.819Z,9.37
2019-03-03T10:32:11.405Z,8.20
2019-03-03T10:40:42.593Z,8.50
2019-03-03T10:43:30.103Z,8.97
2019-03-03T10:46:17.639Z,8.80
2019-03-03T10:49:05.143Z,9.83
2019-03-03T10:51:52.670Z,8.87
2019-03-03T10:54:59.436Z,9.23
2019-03-03T10:57:46.961Z,9.57
2019-03-03T11:00:55.295Z,10.00
2019-03-03T11:04:03.601Z,8.97
2019-03-03T11:09:47.245Z,10.17
2019-03-03T11:15:18.171Z,9.80
2019-03-03T11:17:59.428Z,8.37
2019-03-03T11:23:36.028Z,9.77
2019-03-03T11:26:44.346Z,8.50
2019-03-03T11:34:59.876Z,8.47
2019-03-03T11:37:47.403Z,8.50
2019-03-03T11:43:42.984Z,8.37
2019-03-03T11:46:30.497Z,7.50
2019-03-03T11:59:58.740Z,5.97
2019-03-03T12:02:53.805Z,6.13
2019-03-03T12:05:35.497Z,7.13
2019-03-03T12:08:23.021Z,6.90
2019-03-03T12:11:29.793Z,6.93
2019-03-03T12:14:17.314Z,6.63
2019-03-03T12:17:04.823Z,5.60
2019-03-03T12:20:11.595Z,5.60
2019-03-03T12:22:59.117Z,6.27
2019-03-03T12:25:46.629Z,6.80
2019-03-03T12:28:34.148Z,5.83
2019-03-03T12:31:21.662Z,5.42
2019-03-03T12:34:28.436Z,6.27
2019-03-03T12:37:15.949Z,5.40
2019-03-03T12:40:03.473Z,6.20
2019-03-03T12:42:50.995Z,5.00
2019-03-03T12:45:38.512Z,5.17
2019-03-03T12:48:26.042Z,5.47
2019-03-03T12:51:13.561Z,5.40
2019-03-03T12:56:36.455Z,5.70
2019-03-03T12:59:44.767Z,5.33
2019-03-03T13:02:51.539Z,5.40
2019-03-03T13:05:39.055Z,4.50
2019-03-03T13:08:26.576Z,5.60
2019-03-03T13:14:03.182Z,5.37
2019-03-03T13:16:50.687Z,5.70
2019-03-03T13:19:38.216Z,5.23
2019-03-03T13:22:25.726Z,5.57
2019-03-03T13:25:32.504Z,5.60
2019-03-03T13:31:09.103Z,5.40
2019-03-03T13:36:50.944Z,5.93
2019-03-03T13:42:43.862Z,5.93
2019-03-03T13:45:52.172Z,5.03
2019-03-03T13:48:20.578Z,5.53
2019-03-03T13:51:08.216Z,6.27
2019-03-03T13:56:24.055Z,5.87
2019-03-03T13:58:52.447Z,5.40
2019-03-03T14:04:15.829Z,6.60
2019-03-03T14:07:03.479Z,6.67
2019-03-03T14:09:31.869Z,7.20
2019-03-03T14:12:19.520Z,6.90
2019-03-03T14:17:22.349Z,7.20
2019-03-03T14:20:30.735Z,7.20
2019-03-03T14:22:59.136Z,8.27
2019-03-03T14:25:46.657Z,8.20
2019-03-03T14:28:15.052Z,7.53
2019-03-03T14:31:02.704Z,7.63
2019-03-03T14:33:50.343Z,7.20
2019-03-03T14:36:37.873Z,6.53
2019-03-03T14:39:46.181Z,8.63
2019-03-03T14:42:33.833Z,8.03
2019-03-03T14:45:21.488Z,7.60
2019-03-03T14:47:49.883Z,6.80
2019-03-03T14:50:58.199Z,8.00
2019-03-03T14:53:26.591Z,7.93
2019-03-03T14:55:54.999Z,7.60
2019-03-03T14:58:23.455Z,8.33
2019-03-03T15:01:11.085Z,7.67
2019-03-03T15:03:58.841Z,8.00
2019-03-03T15:06:27.297Z,9.33
2019-03-03T15:08:55.752Z,8.97
2019-03-03T15:11:43.678Z,8.73
2019-03-03T15:14:12.101Z,9.80
2019-03-03T15:16:40.540Z,8.87
2019-03-03T15:21:56.637Z,8.63
2019-03-03T15:24:25.115Z,9.70
2019-03-03T15:29:48.284Z,9.20
2019-03-03T15:32:16.761Z,10.00
2019-03-03T15:35:04.485Z,9.97
2019-03-03T15:37:33.198Z,9.37
2019-03-03T15:40:20.946Z,9.53
2019-03-03T15:43:08.644Z,10.70
2019-03-03T15:48:43.723Z,10.00
2019-03-03T15:54:47.104Z,12.00
2019-03-03T15:57:15.544Z,8.90
2019-03-03T16:00:03.332Z,10.03
2019-03-03T16:02:31.767Z,10.20
2019-03-03T16:05:00.312Z,11.00
2019-03-03T16:07:48.020Z,11.13
2019-03-03T16:10:56.339Z,9.00
2019-03-03T16:13:44.046Z,9.40
2019-03-03T16:19:19.071Z,9.87
2019-03-03T16:21:47.494Z,9.50
2019-03-03T16:24:35.343Z,8.90
2019-03-03T16:27:03.819Z,8.50
2019-03-03T16:29:32.283Z,8.63
2019-03-03T16:32:20.036Z,9.80
2019-03-03T16:34:48.448Z,7.30
2019-03-03T16:37:16.888Z,8.43
2019-03-03T16:40:25.382Z,7.83
2019-03-03T16:42:53.869Z,7.90
2019-03-03T16:46:02.202Z,8.93
2019-03-03T16:48:49.971Z,7.10
2019-03-03T16:51:18.390Z,7.87
2019-03-03T16:53:46.813Z,6.70
2019-03-03T16:56:34.326Z,7.30
2019-03-03T16:59:21.882Z,7.97
2019-03-03T17:01:50.326Z,6.70
2019-03-03T17:04:37.853Z,7.67
2019-03-03T17:09:40.786Z,6.37
2019-03-03T17:12:28.473Z,7.30
2019-03-03T17:15:16.042Z,6.83
2019-03-03T17:18:24.419Z,7.00
2019-03-03T17:21:11.961Z,7.50
2019-03-03T17:23:40.533Z,6.70
2019-03-03T17:26:48.889Z,8.27
2019-03-03T17:29:36.468Z,8.17
2019-03-03T17:32:24.184Z,9.40
2019-03-03T17:34:52.680Z,8.80
2019-03-03T17:37:40.397Z,7.87
2019-03-03T17:40:48.746Z,8.67
2019-03-03T17:43:17.197Z,9.43
2019-03-03T17:48:33.060Z,9.37
2019-03-03T17:53:48.947Z,10.23
2019-03-03T17:56:36.748Z,10.27
2019-03-03T17:59:45.109Z,10.60
2019-03-03T18:02:32.635Z,9.70
2019-03-03T18:05:20.197Z,9.83
2019-03-03T18:13:10.307Z,10.10
2019-03-03T18:15:57.968Z,9.90
2019-03-03T18:18:26.403Z,13.00
2019-03-03T18:20:54.827Z,13.37
2019-03-03T18:23:42.381Z,11.80
2019-03-03T18:28:58.319Z,11.93
2019-03-03T18:31:46.131Z,13.10
2019-03-03T18:34:54.525Z,13.50
2019-03-03T18:37:22.876Z,12.10
2019-03-03T18:39:51.356Z,12.43
2019-03-03T18:42:19.801Z,13.20
2019-03-03T18:45:28.177Z,13.50
2019-03-03T18:47:56.576Z,12.30
2019-03-03T18:51:05.031Z,11.63
2019-03-03T18:53:33.870Z,11.87
2019-03-03T18:56:02.395Z,12.10
2019-03-03T18:58:30.895Z,12.20
2019-03-03T19:01:18.555Z,11.93
2019-03-03T19:04:06.213Z,13.40
2019-03-03T19:06:35.042Z,12.27
2019-03-03T19:09:44.649Z,12.63
2019-03-03T19:12:13.049Z,11.73
2019-03-03T19:14:41.469Z,11.90
2019-03-03T19:17:29.115Z,11.47
2019-03-03T19:19:57.524Z,12.90
2019-03-03T19:22:45.173Z,12.10
2019-03-03T19:25:53.746Z,12.80
2019-03-03T19:28:22.144Z,11.90
2019-03-03T19:31:09.849Z,10.43
2019-03-03T19:33:58.078Z,10.40
2019-03-03T19:36:26.503Z,11.93
2019-03-03T19:42:08.191Z,11.03
2019-03-03T19:44:55.718Z,10.53
2019-03-03T19:48:04.033Z,8.83
2019-03-03T19:50:32.435Z,8.67
2019-03-03T19:53:20.086Z,9.23
2019-03-03T19:59:02.033Z,9.47
2019-03-03T20:04:24.225Z,10.10
2019-03-03T20:06:52.633Z,7.63
2019-03-03T20:10:00.948Z,7.73
2019-03-03T20:12:48.597Z,9.40
2019-03-03T20:15:36.428Z,9.10
2019-03-03T20:18:44.739Z,8.77
2019-03-03T20:23:47.464Z,8.53
2019-03-03T20:26:35.038Z,7.37
2019-03-03T20:32:11.612Z,7.63
2019-03-03T20:34:40.030Z,8.00
2019-03-03T20:37:08.473Z,6.90
2019-03-03T20:39:56.145Z,8.50
2019-03-03T20:42:24.579Z,6.60
2019-03-03T20:45:12.134Z,6.50
2019-03-03T20:47:40.554Z,6.57
2019-03-03T20:50:48.880Z,6.77
2019-03-03T20:53:36.523Z,6.20
2019-03-03T20:56:24.281Z,5.20
2019-03-03T21:01:40.121Z,5.70
2019-03-03T21:04:08.515Z,6.03
2019-03-03T21:06:56.248Z,6.30
2019-03-03T21:09:24.718Z,4.70
2019-03-03T21:12:12.257Z,5.13
2019-03-03T21:14:59.901Z,4.93
2019-03-03T21:17:28.310Z,5.70
2019-03-03T21:19:56.751Z,4.90
2019-03-03T21:22:25.242Z,4.43
2019-03-03T21:24:53.644Z,4.73
2019-03-03T21:27:22.056Z,4.20
2019-03-03T21:29:50.477Z,5.33
2019-03-03T21:32:45.221Z,4.60
2019-03-03T21:38:21.896Z,4.63
2019-03-03T21:40:50.342Z,5.37
2019-03-03T21:43:20.881Z,3.50
2019-03-03T21:45:48.867Z,4.57
2019-03-03T21:48:17.279Z,4.40
2019-03-03T21:51:04.936Z,4.53
2019-03-03T21:53:52.448Z,5.00
2019-03-03T21:56:20.882Z,4.37
2019-03-03T21:59:08.423Z,4.03
2019-03-03T22:01:36.828Z,4.57
2019-03-03T22:04:45.135Z,4.60
2019-03-03T22:07:13.958Z,3.20
2019-03-03T22:09:43.718Z,3.90
2019-03-03T22:12:12.179Z,4.60
2019-03-03T22:14:40.617Z,4.97
2019-03-03T22:17:28.388Z,4.13
2019-03-03T22:23:44.756Z,4.97
2019-03-03T22:26:13.165Z,4.43
2019-03-03T22:28:41.596Z,4.73
2019-03-03T22:31:10.046Z,6.47
2019-03-03T22:33:57.702Z,4.07
2019-03-03T22:36:26.103Z,4.80
2019-03-03T22:38:54.545Z,5.20
2019-03-03T22:41:42.217Z,6.07
2019-03-03T22:44:29.897Z,4.13
2019-03-03T22:46:58.345Z,3.90
2019-03-03T22:49:45.984Z,3.80
2019-03-03T22:52:33.546Z,3.97
2019-03-03T22:55:21.206Z,3.90
2019-03-03T22:58:08.891Z,4.27
2019-03-03T23:01:17.278Z,4.53
2019-03-03T23:04:24.267Z,5.00
2019-03-03T23:07:32.668Z,3.70
2019-03-03T23:10:40.994Z,4.03
2019-03-03T23:13:49.331Z,4.53
2019-03-03T23:16:57.642Z,4.93
2019-03-03T23:20:05.988Z,3.73
2019-03-03T23:23:12.994Z,3.93
2019-03-03T23:26:00.724Z,4.87
2019-03-03T23:28:48.376Z,4.23
2019-03-03T23:31:16.769Z,3.60
2019-03-03T23:36:19.473Z,4.23
2019-03-03T23:39:07.120Z,4.57
2019-03-03T23:41:54.628Z,4.50
2019-03-03T23:44:23.034Z,5.47
2019-03-03T23:46:51.436Z,3.50
2019-03-03T23:51:53.449Z,4.63
2019-03-03T23:54:21.857Z,4.17
2019-03-03T23:57:09.366Z,4.00
2019-03-03T23:59:37.767Z,4.40
